sensor_id;sensor_type;location;lat;lon;timestamp;pressure;altitude;pressure_sealevel;temperature;humidity
37170;BME280;23062;13.952;100.608;2023-06-26T00:03:58;1007.69;;;32.00;53.65
37170;BME280;23062;13.952;100.608;2023-06-26T00:08:23;1007.74;;;31.98;53.75
37170;BME280;23062;13.952;100.608;2023-06-26T00:12:57;1007.62;;;31.99;53.63
37170;BME280;23062;13.952;100.608;2023-06-26T00:17:24;1007.69;;;32.01;53.64
37170;BME280;23062;13.952;100.608;2023-06-26T00:21:51;1007.72;;;32.01;53.46
37170;BME280;23062;13.952;100.608;2023-06-26T00:26:18;1007.73;;;32.02;53.48
37170;BME280;23062;13.952;100.608;2023-06-26T00:30:43;1007.72;;;32.05;53.23
37170;BME280;23062;13.952;100.608;2023-06-26T00:35:11;1007.66;;;32.07;53.14
37170;BME280;23062;13.952;100.608;2023-06-26T00:39:37;1007.73;;;32.07;53.01
37170;BME280;23062;13.952;100.608;2023-06-26T00:44:03;1007.73;;;32.10;52.80
37170;BME280;23062;13.952;100.608;2023-06-26T00:48:30;1007.74;;;32.09;52.82
37170;BME280;23062;13.952;100.608;2023-06-26T00:52:59;1007.76;;;32.11;52.81
37170;BME280;23062;13.952;100.608;2023-06-26T00:57:32;1007.83;;;32.15;52.60
37170;BME280;23062;13.952;100.608;2023-06-26T01:01:59;1007.81;;;32.17;52.58
37170;BME280;23062;13.952;100.608;2023-06-26T01:06:27;1007.86;;;32.19;52.67
37170;BME280;23062;13.952;100.608;2023-06-26T01:10:56;1007.93;;;32.20;52.59
37170;BME280;23062;13.952;100.608;2023-06-26T01:15:23;1008.02;;;32.20;52.36
37170;BME280;23062;13.952;100.608;2023-06-26T01:19:49;1008.06;;;32.13;52.44
37170;BME280;23062;13.952;100.608;2023-06-26T01:24:19;1008.11;;;32.14;52.56
37170;BME280;23062;13.952;100.608;2023-06-26T01:28:47;1008.10;;;32.17;52.46
37170;BME280;23062;13.952;100.608;2023-06-26T01:33:15;1008.09;;;32.17;52.48
37170;BME280;23062;13.952;100.608;2023-06-26T01:37:46;1008.13;;;32.15;52.57
37170;BME280;23062;13.952;100.608;2023-06-26T01:42:14;1008.11;;;32.18;52.67
37170;BME280;23062;13.952;100.608;2023-06-26T01:47:01;1008.02;;;32.20;52.45
37170;BME280;23062;13.952;100.608;2023-06-26T01:51:33;1008.02;;;32.22;52.71
37170;BME280;23062;13.952;100.608;2023-06-26T01:56:06;1008.05;;;32.23;52.89
37170;BME280;23062;13.952;100.608;2023-06-26T02:00:38;1008.13;;;32.23;52.97
37170;BME280;23062;13.952;100.608;2023-06-26T02:05:15;1008.15;;;32.25;52.75
37170;BME280;23062;13.952;100.608;2023-06-26T02:09:42;1008.19;;;32.19;52.67
37170;BME280;23062;13.952;100.608;2023-06-26T02:14:12;1008.13;;;32.25;52.60
37170;BME280;23062;13.952;100.608;2023-06-26T02:18:41;1008.17;;;32.27;52.55
37170;BME280;23062;13.952;100.608;2023-06-26T02:23:07;1008.23;;;32.27;52.51
37170;BME280;23062;13.952;100.608;2023-06-26T02:27:34;1008.23;;;32.30;52.38
37170;BME280;23062;13.952;100.608;2023-06-26T02:32:09;1008.24;;;32.31;52.61
37170;BME280;23062;13.952;100.608;2023-06-26T02:36:35;1008.17;;;32.33;52.77
37170;BME280;23062;13.952;100.608;2023-06-26T02:41:08;1008.17;;;32.34;53.71
37170;BME280;23062;13.952;100.608;2023-06-26T02:45:35;1008.10;;;32.32;56.22
37170;BME280;23062;13.952;100.608;2023-06-26T02:50:02;1008.04;;;32.37;55.50
37170;BME280;23062;13.952;100.608;2023-06-26T02:54:36;1008.12;;;32.37;55.15
37170;BME280;23062;13.952;100.608;2023-06-26T02:59:02;1008.17;;;32.40;55.44
37170;BME280;23062;13.952;100.608;2023-06-26T03:03:29;1008.15;;;32.42;55.10
37170;BME280;23062;13.952;100.608;2023-06-26T03:08:04;1008.07;;;32.37;54.47
37170;BME280;23062;13.952;100.608;2023-06-26T03:12:29;1008.08;;;32.41;53.85
37170;BME280;23062;13.952;100.608;2023-06-26T03:16:57;1008.08;;;32.44;53.60
37170;BME280;23062;13.952;100.608;2023-06-26T03:21:27;1008.14;;;32.50;53.06
37170;BME280;23062;13.952;100.608;2023-06-26T03:25:55;1008.16;;;32.58;52.69
37170;BME280;23062;13.952;100.608;2023-06-26T03:30:22;1008.12;;;32.64;52.41
37170;BME280;23062;13.952;100.608;2023-06-26T03:34:48;1008.11;;;32.66;52.52
37170;BME280;23062;13.952;100.608;2023-06-26T03:39:21;1008.13;;;32.72;51.99
37170;BME280;23062;13.952;100.608;2023-06-26T03:43:47;1008.16;;;32.75;52.24
37170;BME280;23062;13.952;100.608;2023-06-26T03:48:20;1008.15;;;32.75;52.12
37170;BME280;23062;13.952;100.608;2023-06-26T03:52:53;1008.21;;;32.81;52.07
37170;BME280;23062;13.952;100.608;2023-06-26T03:57:23;1008.13;;;32.83;52.36
37170;BME280;23062;13.952;100.608;2023-06-26T04:01:49;1008.06;;;32.84;52.37
37170;BME280;23062;13.952;100.608;2023-06-26T04:06:23;1008.06;;;32.90;52.43
37170;BME280;23062;13.952;100.608;2023-06-26T04:10:49;1008.06;;;32.96;52.19
37170;BME280;23062;13.952;100.608;2023-06-26T04:15:22;1008.07;;;33.00;51.84
37170;BME280;23062;13.952;100.608;2023-06-26T04:19:49;1008.05;;;33.02;51.27
37170;BME280;23062;13.952;100.608;2023-06-26T04:24:15;1008.03;;;33.04;51.42
37170;BME280;23062;13.952;100.608;2023-06-26T04:28:48;1008.05;;;33.07;51.16
37170;BME280;23062;13.952;100.608;2023-06-26T04:33:13;1008.00;;;33.07;50.99
37170;BME280;23062;13.952;100.608;2023-06-26T04:37:41;1008.02;;;33.11;50.68
37170;BME280;23062;13.952;100.608;2023-06-26T04:42:11;1008.01;;;33.10;50.55
37170;BME280;23062;13.952;100.608;2023-06-26T04:46:44;1008.01;;;33.07;50.66
37170;BME280;23062;13.952;100.608;2023-06-26T04:51:17;1008.00;;;32.97;50.65
37170;BME280;23062;13.952;100.608;2023-06-26T04:55:54;1007.91;;;32.94;50.51
37170;BME280;23062;13.952;100.608;2023-06-26T05:00:28;1007.87;;;32.94;51.01
37170;BME280;23062;13.952;100.608;2023-06-26T05:04:54;1007.79;;;32.98;51.46
37170;BME280;23062;13.952;100.608;2023-06-26T05:09:21;1007.77;;;33.04;51.58
37170;BME280;23062;13.952;100.608;2023-06-26T05:13:48;1007.74;;;33.03;51.24
37170;BME280;23062;13.952;100.608;2023-06-26T05:18:15;1007.64;;;33.07;50.92
37170;BME280;23062;13.952;100.608;2023-06-26T05:22:42;1007.63;;;33.13;50.74
37170;BME280;23062;13.952;100.608;2023-06-26T05:27:15;1007.51;;;33.16;50.23
37170;BME280;23062;13.952;100.608;2023-06-26T05:31:43;1007.48;;;33.17;50.15
37170;BME280;23062;13.952;100.608;2023-06-26T05:36:13;1007.40;;;33.17;50.48
37170;BME280;23062;13.952;100.608;2023-06-26T05:40:40;1007.40;;;33.20;50.66
37170;BME280;23062;13.952;100.608;2023-06-26T05:45:07;1007.40;;;33.25;50.83
37170;BME280;23062;13.952;100.608;2023-06-26T05:49:34;1007.27;;;33.27;50.70
37170;BME280;23062;13.952;100.608;2023-06-26T05:54:02;1007.27;;;33.26;50.88
37170;BME280;23062;13.952;100.608;2023-06-26T05:58:33;1007.19;;;33.29;50.52
37170;BME280;23062;13.952;100.608;2023-06-26T06:03:00;1007.21;;;33.31;50.55
37170;BME280;23062;13.952;100.608;2023-06-26T06:07:34;1007.19;;;33.36;50.34
37170;BME280;23062;13.952;100.608;2023-06-26T06:12:10;1007.03;;;33.38;49.93
37170;BME280;23062;13.952;100.608;2023-06-26T06:16:36;1007.00;;;33.45;49.50
37170;BME280;23062;13.952;100.608;2023-06-26T06:21:09;1006.89;;;33.49;49.16
37170;BME280;23062;13.952;100.608;2023-06-26T06:25:35;1006.84;;;33.49;48.96
37170;BME280;23062;13.952;100.608;2023-06-26T06:30:10;1006.74;;;33.51;48.77
37170;BME280;23062;13.952;100.608;2023-06-26T06:34:37;1006.69;;;33.51;48.78
37170;BME280;23062;13.952;100.608;2023-06-26T06:39:08;1006.63;;;33.55;48.47
37170;BME280;23062;13.952;100.608;2023-06-26T06:43:34;1006.53;;;33.52;48.52
37170;BME280;23062;13.952;100.608;2023-06-26T06:48:01;1006.46;;;33.50;48.62
37170;BME280;23062;13.952;100.608;2023-06-26T06:52:28;1006.30;;;33.56;48.50
37170;BME280;23062;13.952;100.608;2023-06-26T06:56:56;1006.18;;;33.59;48.34
37170;BME280;23062;13.952;100.608;2023-06-26T07:01:29;1006.11;;;33.58;48.43
37170;BME280;23062;13.952;100.608;2023-06-26T07:06:01;1005.99;;;33.60;48.61
37170;BME280;23062;13.952;100.608;2023-06-26T07:10:29;1005.93;;;33.62;48.54
37170;BME280;23062;13.952;100.608;2023-06-26T07:14:56;1005.85;;;33.63;48.45
37170;BME280;23062;13.952;100.608;2023-06-26T07:19:24;1005.76;;;33.60;48.39
37170;BME280;23062;13.952;100.608;2023-06-26T07:23:51;1005.72;;;33.59;48.58
37170;BME280;23062;13.952;100.608;2023-06-26T07:28:18;1005.69;;;33.60;48.12
37170;BME280;23062;13.952;100.608;2023-06-26T07:32:46;1005.66;;;33.64;47.95
37170;BME280;23062;13.952;100.608;2023-06-26T07:37:12;1005.58;;;33.58;48.18
37170;BME280;23062;13.952;100.608;2023-06-26T07:41:43;1005.53;;;33.63;48.04
37170;BME280;23062;13.952;100.608;2023-06-26T07:46:16;1005.47;;;33.63;48.02
37170;BME280;23062;13.952;100.608;2023-06-26T07:50:43;1005.45;;;33.63;48.04
37170;BME280;23062;13.952;100.608;2023-06-26T07:55:17;1005.38;;;33.66;48.20
37170;BME280;23062;13.952;100.608;2023-06-26T07:59:49;1005.36;;;33.63;48.25
37170;BME280;23062;13.952;100.608;2023-06-26T08:04:16;1005.25;;;33.61;48.46
37170;BME280;23062;13.952;100.608;2023-06-26T08:08:51;1005.19;;;33.64;48.78
37170;BME280;23062;13.952;100.608;2023-06-26T08:13:16;1005.06;;;33.62;48.92
37170;BME280;23062;13.952;100.608;2023-06-26T08:17:42;1005.05;;;33.66;49.10
37170;BME280;23062;13.952;100.608;2023-06-26T08:22:11;1004.95;;;33.63;49.25
37170;BME280;23062;13.952;100.608;2023-06-26T08:26:38;1004.85;;;33.65;48.93
37170;BME280;23062;13.952;100.608;2023-06-26T08:31:07;1004.91;;;33.64;49.12
37170;BME280;23062;13.952;100.608;2023-06-26T08:35:40;1004.92;;;33.63;49.29
37170;BME280;23062;13.952;100.608;2023-06-26T08:40:09;1004.85;;;33.64;49.08
37170;BME280;23062;13.952;100.608;2023-06-26T08:44:36;1004.81;;;33.63;48.95
37170;BME280;23062;13.952;100.608;2023-06-26T08:53:58;1004.75;;;33.69;48.96
37170;BME280;23062;13.952;100.608;2023-06-26T08:58:28;1004.70;;;33.69;48.94
37170;BME280;23062;13.952;100.608;2023-06-26T09:02:54;1004.66;;;33.69;48.90
37170;BME280;23062;13.952;100.608;2023-06-26T09:07:28;1004.74;;;33.70;48.80
37170;BME280;23062;13.952;100.608;2023-06-26T09:12:03;1004.68;;;33.63;48.97
37170;BME280;23062;13.952;100.608;2023-06-26T09:16:30;1004.72;;;33.63;48.98
37170;BME280;23062;13.952;100.608;2023-06-26T09:21:07;1004.70;;;33.61;48.43
37170;BME280;23062;13.952;100.608;2023-06-26T09:25:33;1004.69;;;33.59;47.95
37170;BME280;23062;13.952;100.608;2023-06-26T09:30:07;1004.74;;;33.58;47.37
37170;BME280;23062;13.952;100.608;2023-06-26T09:34:34;1004.73;;;33.59;47.18
37170;BME280;23062;13.952;100.608;2023-06-26T09:39:01;1004.81;;;33.57;46.72
37170;BME280;23062;13.952;100.608;2023-06-26T09:43:29;1004.87;;;33.59;46.31
37170;BME280;23062;13.952;100.608;2023-06-26T09:48:00;1004.91;;;33.61;46.11
37170;BME280;23062;13.952;100.608;2023-06-26T09:52:30;1004.91;;;33.59;45.52
37170;BME280;23062;13.952;100.608;2023-06-26T09:57:18;1004.95;;;33.58;46.14
37170;BME280;23062;13.952;100.608;2023-06-26T10:01:48;1004.93;;;33.61;46.14
37170;BME280;23062;13.952;100.608;2023-06-26T10:10:57;1005.07;;;33.61;46.40
37170;BME280;23062;13.952;100.608;2023-06-26T10:15:32;1005.13;;;33.61;46.45
37170;BME280;23062;13.952;100.608;2023-06-26T10:20:07;1005.16;;;33.61;46.28
37170;BME280;23062;13.952;100.608;2023-06-26T10:24:35;1005.21;;;33.56;47.09
37170;BME280;23062;13.952;100.608;2023-06-26T10:29:05;1005.28;;;33.57;48.89
37170;BME280;23062;13.952;100.608;2023-06-26T10:33:39;1005.30;;;33.55;49.74
37170;BME280;23062;13.952;100.608;2023-06-26T10:38:09;1005.28;;;33.53;49.88
37170;BME280;23062;13.952;100.608;2023-06-26T10:42:38;1005.25;;;33.55;50.14
37170;BME280;23062;13.952;100.608;2023-06-26T10:47:12;1005.25;;;33.57;49.76
37170;BME280;23062;13.952;100.608;2023-06-26T10:51:39;1005.23;;;33.53;49.52
37170;BME280;23062;13.952;100.608;2023-06-26T10:56:14;1005.32;;;33.54;49.28
37170;BME280;23062;13.952;100.608;2023-06-26T11:00:52;1005.39;;;33.55;48.99
37170;BME280;23062;13.952;100.608;2023-06-26T11:05:28;1005.41;;;33.51;48.77
37170;BME280;23062;13.952;100.608;2023-06-26T11:09:59;1005.45;;;33.58;48.51
37170;BME280;23062;13.952;100.608;2023-06-26T11:14:30;1005.48;;;33.53;48.45
37170;BME280;23062;13.952;100.608;2023-06-26T11:18:58;1005.53;;;33.56;48.45
37170;BME280;23062;13.952;100.608;2023-06-26T11:23:28;1005.56;;;33.53;48.55
37170;BME280;23062;13.952;100.608;2023-06-26T11:28:01;1005.62;;;33.52;48.44
37170;BME280;23062;13.952;100.608;2023-06-26T11:32:29;1005.64;;;33.55;48.08
37170;BME280;23062;13.952;100.608;2023-06-26T11:36:57;1005.63;;;33.55;47.84
37170;BME280;23062;13.952;100.608;2023-06-26T11:41:29;1005.58;;;33.56;48.11
37170;BME280;23062;13.952;100.608;2023-06-26T11:45:56;1005.66;;;33.56;48.05
37170;BME280;23062;13.952;100.608;2023-06-26T11:50:24;1005.83;;;33.56;47.92
37170;BME280;23062;13.952;100.608;2023-06-26T11:54:50;1005.87;;;33.54;47.87
37170;BME280;23062;13.952;100.608;2023-06-26T11:59:17;1005.94;;;33.53;47.91
37170;BME280;23062;13.952;100.608;2023-06-26T12:03:45;1006.02;;;33.53;47.87
37170;BME280;23062;13.952;100.608;2023-06-26T12:08:11;1006.09;;;33.54;47.87
37170;BME280;23062;13.952;100.608;2023-06-26T12:12:39;1006.10;;;33.54;47.78
37170;BME280;23062;13.952;100.608;2023-06-26T12:17:13;1006.15;;;33.50;47.64
37170;BME280;23062;13.952;100.608;2023-06-26T12:26:19;1006.33;;;33.52;47.17
37170;BME280;23062;13.952;100.608;2023-06-26T12:35:42;1006.45;;;33.47;47.42
37170;BME280;23062;13.952;100.608;2023-06-26T12:40:19;1006.58;;;33.50;47.38
37170;BME280;23062;13.952;100.608;2023-06-26T12:44:46;1006.63;;;33.54;47.10
37170;BME280;23062;13.952;100.608;2023-06-26T12:49:20;1006.76;;;33.49;47.49
37170;BME280;23062;13.952;100.608;2023-06-26T12:53:48;1006.84;;;33.49;47.68
37170;BME280;23062;13.952;100.608;2023-06-26T12:58:15;1006.90;;;33.48;47.64
37170;BME280;23062;13.952;100.608;2023-06-26T13:02:43;1006.99;;;33.46;47.85
37170;BME280;23062;13.952;100.608;2023-06-26T13:07:18;1007.12;;;33.38;49.95
37170;BME280;23062;13.952;100.608;2023-06-26T13:11:46;1007.27;;;33.38;50.77
37170;BME280;23062;13.952;100.608;2023-06-26T13:16:13;1007.31;;;33.31;51.78
37170;BME280;23062;13.952;100.608;2023-06-26T13:20:39;1007.49;;;33.27;52.27
37170;BME280;23062;13.952;100.608;2023-06-26T13:25:13;1007.64;;;33.31;52.30
37170;BME280;23062;13.952;100.608;2023-06-26T13:29:40;1007.70;;;33.35;52.27
37170;BME280;23062;13.952;100.608;2023-06-26T13:34:07;1007.67;;;33.38;52.32
37170;BME280;23062;13.952;100.608;2023-06-26T13:38:41;1007.75;;;33.30;52.66
37170;BME280;23062;13.952;100.608;2023-06-26T13:43:08;1007.86;;;33.36;52.65
37170;BME280;23062;13.952;100.608;2023-06-26T13:47:35;1007.92;;;33.39;52.70
37170;BME280;23062;13.952;100.608;2023-06-26T13:52:11;1007.94;;;33.32;53.04
37170;BME280;23062;13.952;100.608;2023-06-26T13:56:37;1007.96;;;33.34;53.12
37170;BME280;23062;13.952;100.608;2023-06-26T14:01:05;1007.98;;;33.32;53.28
37170;BME280;23062;13.952;100.608;2023-06-26T14:05:39;1008.04;;;33.30;53.29
37170;BME280;23062;13.952;100.608;2023-06-26T14:10:13;1008.05;;;33.28;53.38
37170;BME280;23062;13.952;100.608;2023-06-26T14:14:40;1008.11;;;33.26;53.50
37170;BME280;23062;13.952;100.608;2023-06-26T14:19:13;1008.20;;;33.24;53.74
37170;BME280;23062;13.952;100.608;2023-06-26T14:23:49;1008.23;;;33.25;53.60
37170;BME280;23062;13.952;100.608;2023-06-26T14:28:23;1008.31;;;33.23;53.79
37170;BME280;23062;13.952;100.608;2023-06-26T14:32:57;1008.28;;;33.21;53.77
37170;BME280;23062;13.952;100.608;2023-06-26T14:37:30;1008.41;;;33.22;53.67
37170;BME280;23062;13.952;100.608;2023-06-26T14:42:00;1008.45;;;33.21;53.73
37170;BME280;23062;13.952;100.608;2023-06-26T14:46:27;1008.47;;;33.19;53.71
37170;BME280;23062;13.952;100.608;2023-06-26T14:50:54;1008.53;;;33.19;53.70
37170;BME280;23062;13.952;100.608;2023-06-26T14:55:22;1008.54;;;33.19;53.81
37170;BME280;23062;13.952;100.608;2023-06-26T14:59:49;1008.57;;;33.16;53.94
37170;BME280;23062;13.952;100.608;2023-06-26T15:04:17;1008.60;;;33.14;54.02
37170;BME280;23062;13.952;100.608;2023-06-26T15:08:44;1008.70;;;33.16;53.94
37170;BME280;23062;13.952;100.608;2023-06-26T15:13:12;1008.68;;;33.17;54.03
37170;BME280;23062;13.952;100.608;2023-06-26T15:17:39;1008.82;;;33.17;54.04
37170;BME280;23062;13.952;100.608;2023-06-26T15:22:17;1008.82;;;33.12;54.21
37170;BME280;23062;13.952;100.608;2023-06-26T15:26:43;1008.85;;;33.12;54.32
37170;BME280;23062;13.952;100.608;2023-06-26T15:31:10;1008.84;;;33.12;54.36
37170;BME280;23062;13.952;100.608;2023-06-26T15:35:44;1008.92;;;33.13;54.43
37170;BME280;23062;13.952;100.608;2023-06-26T15:40:12;1008.96;;;33.12;54.39
37170;BME280;23062;13.952;100.608;2023-06-26T15:44:39;1008.99;;;33.12;54.42
37170;BME280;23062;13.952;100.608;2023-06-26T15:49:13;1009.06;;;33.09;54.45
37170;BME280;23062;13.952;100.608;2023-06-26T15:53:41;1009.07;;;33.09;54.57
37170;BME280;23062;13.952;100.608;2023-06-26T15:58:09;1009.01;;;33.06;54.74
37170;BME280;23062;13.952;100.608;2023-06-26T16:02:43;1008.99;;;33.06;54.68
37170;BME280;23062;13.952;100.608;2023-06-26T16:07:17;1009.01;;;33.05;54.75
37170;BME280;23062;13.952;100.608;2023-06-26T16:11:44;1008.95;;;33.05;54.77
37170;BME280;23062;13.952;100.608;2023-06-26T16:16:19;1008.91;;;33.03;54.84
37170;BME280;23062;13.952;100.608;2023-06-26T16:20:48;1008.90;;;33.03;54.85
37170;BME280;23062;13.952;100.608;2023-06-26T16:25:17;1008.85;;;33.03;54.96
37170;BME280;23062;13.952;100.608;2023-06-26T16:29:43;1008.79;;;33.03;55.00
37170;BME280;23062;13.952;100.608;2023-06-26T16:34:11;1008.82;;;33.02;55.14
37170;BME280;23062;13.952;100.608;2023-06-26T16:38:38;1008.84;;;33.04;55.11
37170;BME280;23062;13.952;100.608;2023-06-26T16:43:13;1008.77;;;33.01;55.13
37170;BME280;23062;13.952;100.608;2023-06-26T16:47:41;1008.75;;;33.02;55.14
37170;BME280;23062;13.952;100.608;2023-06-26T16:52:08;1008.71;;;33.01;55.03
37170;BME280;23062;13.952;100.608;2023-06-26T16:56:42;1008.66;;;32.97;55.06
37170;BME280;23062;13.952;100.608;2023-06-26T17:01:10;1008.62;;;32.97;55.03
37170;BME280;23062;13.952;100.608;2023-06-26T17:05:50;1008.56;;;32.97;55.14
37170;BME280;23062;13.952;100.608;2023-06-26T17:10:17;1008.48;;;32.97;55.07
37170;BME280;23062;13.952;100.608;2023-06-26T17:14:45;1008.45;;;32.97;55.06
37170;BME280;23062;13.952;100.608;2023-06-26T17:19:12;1008.32;;;32.96;55.10
37170;BME280;23062;13.952;100.608;2023-06-26T17:23:40;1008.29;;;32.93;55.06
37170;BME280;23062;13.952;100.608;2023-06-26T17:28:07;1008.23;;;32.93;54.95
37170;BME280;23062;13.952;100.608;2023-06-26T17:32:35;1008.23;;;32.93;54.83
37170;BME280;23062;13.952;100.608;2023-06-26T17:37:06;1008.15;;;32.91;55.00
37170;BME280;23062;13.952;100.608;2023-06-26T17:41:34;1008.06;;;32.88;55.04
37170;BME280;23062;13.952;100.608;2023-06-26T17:46:02;1008.02;;;32.90;55.04
37170;BME280;23062;13.952;100.608;2023-06-26T17:50:31;1007.94;;;32.90;55.09
37170;BME280;23062;13.952;100.608;2023-06-26T17:54:59;1007.86;;;32.89;54.95
37170;BME280;23062;13.952;100.608;2023-06-26T17:59:33;1007.76;;;32.88;54.86
37170;BME280;23062;13.952;100.608;2023-06-26T18:04:02;1007.65;;;32.87;54.74
37170;BME280;23062;13.952;100.608;2023-06-26T18:08:32;1007.64;;;32.87;54.75
37170;BME280;23062;13.952;100.608;2023-06-26T18:12:59;1007.52;;;32.87;54.75
37170;BME280;23062;13.952;100.608;2023-06-26T18:17:26;1007.49;;;32.86;54.71
37170;BME280;23062;13.952;100.608;2023-06-26T18:21:53;1007.46;;;32.84;54.54
37170;BME280;23062;13.952;100.608;2023-06-26T18:26:21;1007.43;;;32.84;54.52
37170;BME280;23062;13.952;100.608;2023-06-26T18:30:48;1007.37;;;32.83;54.44
37170;BME280;23062;13.952;100.608;2023-06-26T18:35:14;1007.40;;;32.83;54.36
37170;BME280;23062;13.952;100.608;2023-06-26T18:39:41;1007.47;;;32.82;54.54
37170;BME280;23062;13.952;100.608;2023-06-26T18:44:08;1007.45;;;32.82;54.53
37170;BME280;23062;13.952;100.608;2023-06-26T18:48:35;1007.53;;;32.82;54.48
37170;BME280;23062;13.952;100.608;2023-06-26T18:53:02;1007.48;;;32.79;54.51
37170;BME280;23062;13.952;100.608;2023-06-26T18:57:34;1007.49;;;32.81;54.50
37170;BME280;23062;13.952;100.608;2023-06-26T19:02:00;1007.45;;;32.80;54.63
37170;BME280;23062;13.952;100.608;2023-06-26T19:11:50;1007.33;;;32.84;54.39
37170;BME280;23062;13.952;100.608;2023-06-26T19:18:41;1007.24;;;32.79;54.44
37170;BME280;23062;13.952;100.608;2023-06-26T19:26:47;1007.22;;;32.78;54.55
37170;BME280;23062;13.952;100.608;2023-06-26T19:33:39;1007.12;;;32.80;54.53
37170;BME280;23062;13.952;100.608;2023-06-26T19:46:50;1006.92;;;32.79;54.46
37170;BME280;23062;13.952;100.608;2023-06-26T19:52:55;1006.88;;;32.77;54.46
37170;BME280;23062;13.952;100.608;2023-06-26T19:59:33;1006.77;;;32.77;54.29
37170;BME280;23062;13.952;100.608;2023-06-26T20:04:01;1006.74;;;32.76;54.12
37170;BME280;23062;13.952;100.608;2023-06-26T20:08:36;1006.72;;;32.75;54.06
37170;BME280;23062;13.952;100.608;2023-06-26T20:13:09;1006.68;;;32.74;54.17
37170;BME280;23062;13.952;100.608;2023-06-26T20:17:42;1006.62;;;32.72;54.09
37170;BME280;23062;13.952;100.608;2023-06-26T20:23:37;1006.55;;;32.74;54.01
37170;BME280;23062;13.952;100.608;2023-06-26T20:28:46;1006.53;;;32.72;54.12
37170;BME280;23062;13.952;100.608;2023-06-26T20:34:39;1006.53;;;32.75;54.33
37170;BME280;23062;13.952;100.608;2023-06-26T20:39:10;1006.49;;;32.74;54.29
37170;BME280;23062;13.952;100.608;2023-06-26T20:44:40;1006.46;;;32.52;54.73
37170;BME280;23062;13.952;100.608;2023-06-26T20:49:34;1006.49;;;32.49;54.94
37170;BME280;23062;13.952;100.608;2023-06-26T20:57:31;1006.52;;;32.40;55.52
37170;BME280;23062;13.952;100.608;2023-06-26T21:09:44;1006.61;;;32.41;55.72
37170;BME280;23062;13.952;100.608;2023-06-26T21:17:43;1006.50;;;32.34;55.19
37170;BME280;23062;13.952;100.608;2023-06-26T21:32:36;1006.49;;;32.25;55.71
37170;BME280;23062;13.952;100.608;2023-06-26T21:42:33;1006.46;;;32.41;55.97
37170;BME280;23062;13.952;100.608;2023-06-26T21:47:35;1006.35;;;32.43;55.65
37170;BME280;23062;13.952;100.608;2023-06-26T21:52:09;1006.33;;;32.39;55.76
37170;BME280;23062;13.952;100.608;2023-06-26T21:56:39;1006.36;;;32.41;55.54
37170;BME280;23062;13.952;100.608;2023-06-26T22:06:36;1006.48;;;32.45;55.00
37170;BME280;23062;13.952;100.608;2023-06-26T22:11:03;1006.46;;;32.44;55.03
37170;BME280;23062;13.952;100.608;2023-06-26T22:18:40;1006.36;;;32.44;54.57
37170;BME280;23062;13.952;100.608;2023-06-26T22:23:12;1006.36;;;32.42;54.42
37170;BME280;23062;13.952;100.608;2023-06-26T22:27:45;1006.38;;;32.37;54.53
37170;BME280;23062;13.952;100.608;2023-06-26T22:32:29;1006.41;;;32.43;54.88
37170;BME280;23062;13.952;100.608;2023-06-26T22:37:12;1006.47;;;32.42;54.78
37170;BME280;23062;13.952;100.608;2023-06-26T22:41:39;1006.50;;;32.38;54.82
37170;BME280;23062;13.952;100.608;2023-06-26T22:46:06;1006.53;;;32.39;54.57
37170;BME280;23062;13.952;100.608;2023-06-26T22:50:40;1006.56;;;32.19;54.04
37170;BME280;23062;13.952;100.608;2023-06-26T22:55:22;1006.58;;;32.15;54.01
37170;BME280;23062;13.952;100.608;2023-06-26T22:59:57;1006.58;;;32.13;54.00
37170;BME280;23062;13.952;100.608;2023-06-26T23:04:23;1006.60;;;32.05;54.00
37170;BME280;23062;13.952;100.608;2023-06-26T23:08:50;1006.68;;;32.08;53.82
37170;BME280;23062;13.952;100.608;2023-06-26T23:13:20;1006.71;;;32.04;53.93
37170;BME280;23062;13.952;100.608;2023-06-26T23:17:46;1006.82;;;32.01;54.13
37170;BME280;23062;13.952;100.608;2023-06-26T23:22:21;1006.96;;;32.00;54.16
37170;BME280;23062;13.952;100.608;2023-06-26T23:26:48;1006.96;;;31.98;54.17
37170;BME280;23062;13.952;100.608;2023-06-26T23:31:17;1007.01;;;31.99;54.34
37170;BME280;23062;13.952;100.608;2023-06-26T23:35:44;1007.03;;;31.97;54.31
37170;BME280;23062;13.952;100.608;2023-06-26T23:40:25;1007.05;;;31.99;54.28
37170;BME280;23062;13.952;100.608;2023-06-26T23:44:52;1007.13;;;31.97;54.21
37170;BME280;23062;13.952;100.608;2023-06-26T23:49:25;1007.18;;;32.01;53.95
37170;BME280;23062;13.952;100.608;2023-06-26T23:53:57;1007.26;;;31.98;54.15
37170;BME280;23062;13.952;100.608;2023-06-26T23:58:26;1007.40;;;32.00;54.18
